< < Back
Terminal Aerodrome Forecast


Current Version              Previous Versions:   1  2  3  4  5  6  7  8  9  

Terminal Aerodrome Forecast

559
FTUS42 KFFC 210900 AAA
TAFCSG
TAF AMD
KCSG 210940Z 2110/2206 VRB03KT P6SM SCT150
     FM211100 33003KT 5SM BR SCT008
     FM211400 32004KT P6SM SCT025
     FM211700 31006KT P6SM SCT045
     FM220200 30002KT P6SM SKC=



Latest METAR

243
SAUS70 KWBC 212000 RRF
MTRCSG
METAR KCSG 211951Z COR 28006KT 10SM SCT050 33/21 A3008 RMK AO2 SLP180
T03280206


USA.gov is the U.S. government's official web portal to all federal, state and local government web resources and services.